createdAt,value
2017-12-21T00:01:43.756Z,13.10
2017-12-21T00:04:11.974Z,12.90
2017-12-21T00:06:40.197Z,11.90
2017-12-21T00:09:07.657Z,11.07
2017-12-21T00:11:35.117Z,12.00
2017-12-21T00:14:02.597Z,12.50
2017-12-21T00:16:30.834Z,11.23
2017-12-21T00:18:58.289Z,12.60
2017-12-21T00:21:25.748Z,11.27
2017-12-21T00:23:53.209Z,11.20
2017-12-21T00:26:20.670Z,10.27
2017-12-21T00:28:48.112Z,10.60
2017-12-21T00:31:15.573Z,11.07
2017-12-21T00:33:43.033Z,11.23
2017-12-21T00:36:10.497Z,11.03
2017-12-21T00:38:37.953Z,9.70
2017-12-21T00:41:05.425Z,10.30
2017-12-21T00:43:32.877Z,10.10
2017-12-21T00:46:11.964Z,9.60
2017-12-21T00:48:40.197Z,9.43
2017-12-21T00:51:07.670Z,9.63
2017-12-21T00:53:35.126Z,9.00
2017-12-21T00:56:02.589Z,9.40
2017-12-21T00:58:30.038Z,8.73
2017-12-21T01:00:57.477Z,8.27
2017-12-21T01:03:28.470Z,8.30
2017-12-21T01:05:55.914Z,8.03
2017-12-21T01:08:24.150Z,8.10
2017-12-21T01:10:51.592Z,7.53
2017-12-21T01:13:19.049Z,8.20
2017-12-21T01:15:46.502Z,6.83
2017-12-21T01:18:13.961Z,7.57
2017-12-21T01:20:41.404Z,7.40
2017-12-21T01:23:08.871Z,7.30
2017-12-21T01:25:36.321Z,7.20
2017-12-21T01:28:03.794Z,6.50
2017-12-21T01:30:31.245Z,6.90
2017-12-21T01:32:58.703Z,6.97
2017-12-21T01:35:28.069Z,6.93
2017-12-21T01:37:56.295Z,7.30
2017-12-21T01:40:23.738Z,6.37
2017-12-21T01:42:52.773Z,7.07
2017-12-21T01:45:20.997Z,5.97
2017-12-21T01:47:48.561Z,7.10
2017-12-21T01:50:16.023Z,6.00
2017-12-21T01:52:43.481Z,5.23
2017-12-21T01:55:10.946Z,6.43
2017-12-21T01:57:38.409Z,5.60
2017-12-21T02:00:06.634Z,5.10
2017-12-21T02:02:34.072Z,5.90
2017-12-21T02:05:02.297Z,5.97
2017-12-21T02:07:29.742Z,5.63
2017-12-21T02:09:57.206Z,5.83
2017-12-21T02:12:24.645Z,5.37
2017-12-21T02:14:52.869Z,5.90
2017-12-21T02:17:20.325Z,5.70
2017-12-21T02:19:47.773Z,6.10
2017-12-21T02:22:15.218Z,6.27
2017-12-21T02:24:42.677Z,6.17
2017-12-21T02:27:10.133Z,5.80
2017-12-21T02:29:37.652Z,5.60
2017-12-21T02:32:05.045Z,5.83
2017-12-21T02:34:32.517Z,5.73
2017-12-21T02:36:59.962Z,6.20
2017-12-21T02:39:27.418Z,5.97
2017-12-21T02:41:54.892Z,6.50
2017-12-21T02:44:22.333Z,6.70
2017-12-21T02:46:49.812Z,6.40
2017-12-21T02:49:17.261Z,6.50
2017-12-21T02:51:44.717Z,6.60
2017-12-21T02:54:12.174Z,6.20
2017-12-21T02:56:39.651Z,5.97
2017-12-21T02:59:07.862Z,6.13
2017-12-21T03:01:35.321Z,6.10
2017-12-21T03:04:02.770Z,6.80
2017-12-21T03:06:31.005Z,6.47
2017-12-21T03:08:58.471Z,5.47
2017-12-21T03:11:25.938Z,6.03
2017-12-21T03:13:54.894Z,6.30
2017-12-21T03:16:22.374Z,5.83
2017-12-21T03:18:49.881Z,6.63
2017-12-21T03:21:18.094Z,6.13
2017-12-21T03:23:45.554Z,6.10
2017-12-21T03:26:13.005Z,6.50
2017-12-21T03:28:40.460Z,6.07
2017-12-21T03:31:07.919Z,5.80
2017-12-21T03:33:35.374Z,5.90
2017-12-21T03:36:02.838Z,5.70
2017-12-21T03:38:30.301Z,6.33
2017-12-21T03:40:57.762Z,6.00
2017-12-21T03:43:25.225Z,6.00
2017-12-21T03:45:53.438Z,6.13
2017-12-21T03:48:21.665Z,6.30
2017-12-21T03:50:49.130Z,5.60
2017-12-21T03:53:16.586Z,6.47
2017-12-21T03:55:44.033Z,6.10
2017-12-21T03:58:11.491Z,6.70
2017-12-21T04:00:38.942Z,6.63
2017-12-21T04:03:06.418Z,5.90
2017-12-21T04:05:33.870Z,5.93
2017-12-21T04:08:01.318Z,6.23
2017-12-21T04:10:28.789Z,5.97
2017-12-21T04:12:56.243Z,5.93
2017-12-21T04:15:23.698Z,6.00
2017-12-21T04:17:51.153Z,6.53
2017-12-21T04:20:18.614Z,6.37
2017-12-21T04:22:46.070Z,6.80
2017-12-21T04:25:13.534Z,6.97
2017-12-21T04:27:40.978Z,7.13
2017-12-21T04:30:08.442Z,7.10
2017-12-21T04:32:35.894Z,6.57
2017-12-21T04:35:03.355Z,6.50
2017-12-21T04:37:30.797Z,7.23
2017-12-21T04:39:58.258Z,6.97
2017-12-21T04:42:25.713Z,6.63
2017-12-21T04:44:53.172Z,6.80
2017-12-21T04:47:20.626Z,6.67
2017-12-21T04:49:48.106Z,6.20
2017-12-21T04:52:15.558Z,6.60
2017-12-21T04:54:43.014Z,5.83
2017-12-21T04:57:10.478Z,6.57
2017-12-21T04:59:37.934Z,6.80
2017-12-21T05:02:05.386Z,6.07
2017-12-21T05:04:32.845Z,6.40
2017-12-21T05:07:00.301Z,5.83
2017-12-21T05:09:27.762Z,5.67
2017-12-21T05:11:55.226Z,5.77
2017-12-21T05:14:22.678Z,5.20
2017-12-21T05:16:50.134Z,5.50
2017-12-21T05:19:17.595Z,5.30
2017-12-21T05:21:45.051Z,5.43
2017-12-21T05:24:12.507Z,5.67
2017-12-21T05:26:39.970Z,5.70
2017-12-21T05:29:07.421Z,5.27
2017-12-21T05:31:34.879Z,5.00
2017-12-21T05:34:02.337Z,4.83
2017-12-21T05:36:29.807Z,5.00
2017-12-21T05:38:57.255Z,5.00
2017-12-21T05:41:24.723Z,4.73
2017-12-21T05:43:52.174Z,4.77
2017-12-21T05:46:19.634Z,4.73
2017-12-21T05:48:47.086Z,4.30
2017-12-21T05:51:14.559Z,3.90
2017-12-21T05:53:42.772Z,4.50
2017-12-21T05:56:10.214Z,4.40
2017-12-21T05:58:38.435Z,4.07
2017-12-21T06:01:05.894Z,4.60
2017-12-21T06:03:33.350Z,4.33
2017-12-21T06:06:00.797Z,4.50
2017-12-21T06:08:28.257Z,4.13
2017-12-21T06:10:55.710Z,4.20
2017-12-21T06:13:23.166Z,4.23
2017-12-21T06:15:50.625Z,4.57
2017-12-21T06:18:18.086Z,4.57
2017-12-21T06:20:45.537Z,4.30
2017-12-21T06:23:12.994Z,4.90
2017-12-21T06:25:40.454Z,4.30
2017-12-21T06:28:07.909Z,4.73
2017-12-21T06:30:35.367Z,4.57
2017-12-21T06:33:02.822Z,4.37
2017-12-21T06:35:30.278Z,4.10
2017-12-21T06:37:57.738Z,4.43
2017-12-21T06:40:25.195Z,4.20
2017-12-21T06:42:52.659Z,3.83
2017-12-21T06:45:20.113Z,4.67
2017-12-21T06:47:47.566Z,3.70
2017-12-21T06:50:15.021Z,4.10
2017-12-21T06:52:42.482Z,4.40
2017-12-21T06:55:09.941Z,3.70
2017-12-21T06:57:37.393Z,4.30
2017-12-21T07:00:04.859Z,4.17
2017-12-21T07:02:32.336Z,3.90
2017-12-21T07:04:59.776Z,3.83
2017-12-21T07:07:27.226Z,3.37
2017-12-21T07:09:54.682Z,4.13
2017-12-21T07:12:22.142Z,4.27
2017-12-21T07:14:49.598Z,3.73
2017-12-21T07:17:17.053Z,4.13
2017-12-21T07:19:44.510Z,4.10
2017-12-21T07:22:11.968Z,4.20
2017-12-21T07:24:39.432Z,4.07
2017-12-21T07:27:06.886Z,4.20
2017-12-21T07:29:34.341Z,4.10
2017-12-21T07:32:01.798Z,5.67
2017-12-21T07:34:29.282Z,4.63
2017-12-21T07:36:56.738Z,4.57
2017-12-21T07:39:24.951Z,5.10
2017-12-21T07:41:53.181Z,4.70
2017-12-21T07:44:20.641Z,5.27
2017-12-21T07:46:48.098Z,5.50
2017-12-21T07:49:15.554Z,5.47
2017-12-21T07:51:43.014Z,4.73
2017-12-21T07:54:10.466Z,5.60
2017-12-21T07:56:37.926Z,5.30
2017-12-21T07:59:05.382Z,5.90
2017-12-21T08:01:32.838Z,5.10
2017-12-21T08:04:00.281Z,5.33
2017-12-21T08:06:27.737Z,5.43
2017-12-21T08:08:55.194Z,5.40
2017-12-21T08:11:22.654Z,6.00
2017-12-21T08:13:50.115Z,5.43
2017-12-21T08:16:17.574Z,5.27
2017-12-21T08:18:45.024Z,5.53
2017-12-21T08:21:12.478Z,5.30
2017-12-21T08:23:39.934Z,5.90
2017-12-21T08:26:07.414Z,6.10
2017-12-21T08:28:34.878Z,5.93
2017-12-21T08:31:02.326Z,6.10
2017-12-21T08:33:29.786Z,5.90
2017-12-21T08:35:57.250Z,5.60
2017-12-21T08:38:24.730Z,6.57
2017-12-21T08:40:52.198Z,6.30
2017-12-21T08:43:19.654Z,6.60
2017-12-21T08:45:47.874Z,6.30
2017-12-21T08:48:15.330Z,6.00
2017-12-21T08:50:42.786Z,5.50
2017-12-21T08:53:10.252Z,5.40
2017-12-21T08:55:37.706Z,5.23
2017-12-21T08:58:05.161Z,4.70
2017-12-21T09:00:32.613Z,4.97
2017-12-21T09:03:00.076Z,4.53
2017-12-21T09:05:27.561Z,4.83
2017-12-21T09:07:55.019Z,5.10
2017-12-21T09:10:22.482Z,4.53
2017-12-21T09:12:49.934Z,5.13
2017-12-21T09:15:17.386Z,4.40
2017-12-21T09:17:44.946Z,4.80
2017-12-21T09:20:12.397Z,4.30
2017-12-21T09:22:40.604Z,3.80
2017-12-21T09:25:08.837Z,4.37
2017-12-21T09:27:36.289Z,3.70
2017-12-21T09:30:03.746Z,3.90
2017-12-21T09:32:31.199Z,3.40
2017-12-21T09:34:58.646Z,3.60
2017-12-21T09:37:26.098Z,3.60
2017-12-21T09:39:53.566Z,3.93
2017-12-21T09:42:21.019Z,3.00
2017-12-21T09:44:48.481Z,3.20
2017-12-21T09:47:15.934Z,3.20
2017-12-21T09:49:43.414Z,3.00
2017-12-21T09:52:10.874Z,4.40
2017-12-21T09:54:38.330Z,3.90
2017-12-21T09:57:05.786Z,3.50
2017-12-21T09:59:33.298Z,3.53
2017-12-21T10:02:00.708Z,2.77
2017-12-21T10:04:28.170Z,2.73
2017-12-21T10:06:55.626Z,3.07
2017-12-21T10:09:23.076Z,2.10
2017-12-21T10:11:50.533Z,2.93
2017-12-21T10:14:17.990Z,2.50
2017-12-21T10:16:45.450Z,2.80
2017-12-21T10:19:13.661Z,2.50
2017-12-21T10:21:41.958Z,2.67
2017-12-21T10:24:09.401Z,2.40
2017-12-21T10:26:37.637Z,2.37
2017-12-21T10:29:05.083Z,2.20
2017-12-21T10:31:32.550Z,2.20
2017-12-21T10:34:00.011Z,2.47
2017-12-21T10:36:27.470Z,2.23
2017-12-21T10:38:54.925Z,3.03
2017-12-21T10:41:22.383Z,2.63
2017-12-21T10:43:51.882Z,2.50
2017-12-21T10:46:19.346Z,8.07
2017-12-21T10:48:46.797Z,6.17
2017-12-21T10:51:14.304Z,4.33
2017-12-21T10:53:41.694Z,3.60
2017-12-21T10:56:09.167Z,3.40
2017-12-21T10:58:36.618Z,3.50
2017-12-21T11:01:04.082Z,2.33
2017-12-21T11:03:32.297Z,1.93
2017-12-21T11:05:59.758Z,2.60
2017-12-21T11:08:27.210Z,2.57
2017-12-21T11:10:54.670Z,2.37
2017-12-21T11:13:22.114Z,1.70
2017-12-21T11:15:50.347Z,2.80
2017-12-21T11:18:17.803Z,2.40
2017-12-21T11:20:45.253Z,2.37
2017-12-21T11:23:12.714Z,2.10
2017-12-21T11:25:40.171Z,3.70
2017-12-21T11:28:07.630Z,5.90
2017-12-21T11:30:35.085Z,5.20
2017-12-21T11:33:02.542Z,2.73
2017-12-21T11:35:29.994Z,2.53
2017-12-21T11:37:57.458Z,2.20
2017-12-21T11:40:24.919Z,2.50
2017-12-21T11:42:52.376Z,2.27
2017-12-21T11:45:19.830Z,2.33
2017-12-21T11:47:47.290Z,1.97
2017-12-21T11:50:14.735Z,1.90
2017-12-21T11:52:42.201Z,2.80
2017-12-21T11:55:09.661Z,7.10
2017-12-21T11:57:37.126Z,6.00
2017-12-21T12:00:04.574Z,5.50
2017-12-21T12:02:32.038Z,5.13
2017-12-21T12:04:59.484Z,3.87
2017-12-21T12:07:26.948Z,3.70
2017-12-21T12:09:54.410Z,3.03
2017-12-21T12:12:21.863Z,3.10
2017-12-21T12:14:49.326Z,2.63
2017-12-21T12:17:16.773Z,3.00
2017-12-21T12:19:44.230Z,3.03
2017-12-21T12:22:11.686Z,3.00
2017-12-21T12:24:39.175Z,3.00
2017-12-21T12:27:06.640Z,2.77
2017-12-21T12:29:34.094Z,2.77
2017-12-21T12:32:01.538Z,3.80
2017-12-21T12:34:29.004Z,3.60
2017-12-21T12:36:56.453Z,2.70
2017-12-21T12:39:24.674Z,2.80
2017-12-21T12:41:52.886Z,2.97
2017-12-21T12:44:20.344Z,3.10
2017-12-21T12:46:47.795Z,3.03
2017-12-21T12:49:15.253Z,2.73
2017-12-21T12:51:42.710Z,3.13
2017-12-21T12:54:10.166Z,2.80
2017-12-21T12:56:37.610Z,3.20
2017-12-21T12:59:05.082Z,2.93
2017-12-21T13:01:32.541Z,3.67
2017-12-21T13:03:59.995Z,3.47
2017-12-21T13:06:27.450Z,3.90
2017-12-21T13:08:54.910Z,3.67
2017-12-21T13:11:22.389Z,3.40
2017-12-21T13:13:50.619Z,3.40
2017-12-21T13:16:18.077Z,3.57
2017-12-21T13:18:45.525Z,3.73
2017-12-21T13:21:12.974Z,4.13
2017-12-21T13:23:41.195Z,3.80
2017-12-21T13:26:08.646Z,3.53
2017-12-21T13:28:36.104Z,3.80
2017-12-21T13:31:03.563Z,3.40
2017-12-21T13:33:31.019Z,3.30
2017-12-21T13:35:58.470Z,3.67
2017-12-21T13:38:25.926Z,3.83
2017-12-21T13:40:53.397Z,3.27
2017-12-21T13:43:20.851Z,3.53
2017-12-21T13:45:48.334Z,3.60
2017-12-21T13:48:15.790Z,4.07
2017-12-21T13:50:43.239Z,3.80
2017-12-21T13:53:10.706Z,4.10
2017-12-21T13:55:38.154Z,4.57
2017-12-21T13:58:05.610Z,4.37
2017-12-21T14:00:33.088Z,4.07
2017-12-21T14:03:00.527Z,4.17
2017-12-21T14:05:27.986Z,3.97
2017-12-21T14:07:55.439Z,4.23
2017-12-21T14:10:23.658Z,3.97
2017-12-21T14:12:51.869Z,3.80
2017-12-21T14:15:19.325Z,4.20
2017-12-21T14:17:46.798Z,3.87
2017-12-21T14:20:14.246Z,4.00
2017-12-21T14:22:41.750Z,4.07
2017-12-21T14:25:09.207Z,4.43
2017-12-21T14:27:37.426Z,4.30
2017-12-21T14:30:04.882Z,4.03
2017-12-21T14:32:32.361Z,4.70
2017-12-21T14:34:59.814Z,3.57
2017-12-21T14:37:27.278Z,3.87
2017-12-21T14:39:54.726Z,4.00
2017-12-21T14:42:22.194Z,3.90
2017-12-21T14:44:50.401Z,4.20
2017-12-21T14:47:18.642Z,4.00
2017-12-21T14:49:46.097Z,4.00
2017-12-21T14:52:13.585Z,4.03
2017-12-21T14:54:41.006Z,3.90
2017-12-21T14:57:08.479Z,4.17
2017-12-21T14:59:36.690Z,4.47
2017-12-21T15:02:04.148Z,4.37
2017-12-21T15:04:31.603Z,4.00
2017-12-21T15:06:59.057Z,4.37
2017-12-21T15:09:26.506Z,4.63
2017-12-21T15:11:54.746Z,4.27
2017-12-21T15:14:22.202Z,4.33
2017-12-21T15:16:49.671Z,4.37
2017-12-21T15:19:17.135Z,5.23
2017-12-21T15:21:44.591Z,5.03
2017-12-21T15:24:12.048Z,4.70
2017-12-21T15:26:39.498Z,4.10
2017-12-21T15:29:06.970Z,4.40
2017-12-21T15:31:34.417Z,4.70
2017-12-21T15:34:01.878Z,4.60
2017-12-21T15:36:29.325Z,5.00
2017-12-21T15:38:56.786Z,4.93
2017-12-21T15:41:24.239Z,4.77
2017-12-21T15:43:51.693Z,4.83
2017-12-21T15:46:19.145Z,4.60
2017-12-21T15:48:46.610Z,4.27
2017-12-21T15:51:14.068Z,5.30
2017-12-21T15:53:41.532Z,4.00
2017-12-21T15:56:08.992Z,4.10
2017-12-21T15:58:36.446Z,4.00
2017-12-21T16:01:04.676Z,4.20
2017-12-21T16:03:32.118Z,4.57
2017-12-21T16:05:59.572Z,4.30
2017-12-21T16:08:27.019Z,4.50
2017-12-21T16:10:55.247Z,4.23
2017-12-21T16:13:22.698Z,5.40
2017-12-21T16:15:50.166Z,4.33
2017-12-21T16:18:17.618Z,4.93
2017-12-21T16:20:45.089Z,4.77
2017-12-21T16:23:12.546Z,4.87
2017-12-21T16:25:40.030Z,5.00
2017-12-21T16:28:07.486Z,7.70
2017-12-21T16:30:34.956Z,7.40
2017-12-21T16:33:02.422Z,7.77
2017-12-21T16:35:30.675Z,8.60
2017-12-21T16:37:58.135Z,7.80
2017-12-21T16:40:25.614Z,7.40
2017-12-21T16:42:53.070Z,7.33
2017-12-21T16:45:20.519Z,7.13
2017-12-21T16:47:48.747Z,7.20
2017-12-21T16:50:16.205Z,6.50
2017-12-21T16:52:43.671Z,6.97
2017-12-21T16:55:11.124Z,6.50
2017-12-21T16:57:38.573Z,6.60
2017-12-21T17:00:06.025Z,6.43
2017-12-21T17:02:33.490Z,8.47
2017-12-21T17:05:00.942Z,9.50
2017-12-21T17:07:28.405Z,10.47
2017-12-21T17:09:55.864Z,9.53
2017-12-21T17:12:23.326Z,9.50
2017-12-21T17:14:50.774Z,10.00
2017-12-21T17:17:18.235Z,9.10
2017-12-21T17:19:45.690Z,9.60
2017-12-21T17:22:13.142Z,8.20
2017-12-21T17:24:40.676Z,7.57
2017-12-21T17:27:08.923Z,8.13
2017-12-21T17:29:36.397Z,7.53
2017-12-21T17:32:04.637Z,8.20
2017-12-21T17:34:33.612Z,8.30
2017-12-21T17:37:01.082Z,8.30
2017-12-21T17:39:28.538Z,7.80
2017-12-21T17:41:56.001Z,8.20
2017-12-21T17:44:26.749Z,9.10
2017-12-21T17:46:54.202Z,9.37
2017-12-21T17:49:21.677Z,8.73
2017-12-21T17:51:49.910Z,9.03
2017-12-21T17:54:17.374Z,9.63
2017-12-21T17:56:44.829Z,8.47
2017-12-21T17:59:12.310Z,9.10
2017-12-21T18:01:39.778Z,9.13
2017-12-21T18:04:08.041Z,9.20
2017-12-21T18:06:35.497Z,9.07
2017-12-21T18:09:02.972Z,9.70
2017-12-21T18:11:31.235Z,10.33
2017-12-21T18:13:58.763Z,8.57
2017-12-21T18:16:26.185Z,11.80
2017-12-21T18:18:53.777Z,10.00
2017-12-21T18:21:21.540Z,9.40
2017-12-21T18:23:49.022Z,10.33
2017-12-21T18:26:17.238Z,9.73
2017-12-21T18:28:44.732Z,9.90
2017-12-21T18:31:12.201Z,11.43
2017-12-21T18:33:39.669Z,11.80
2017-12-21T18:36:07.890Z,11.60
2017-12-21T18:38:35.381Z,11.67
2017-12-21T18:41:02.842Z,12.50
2017-12-21T18:43:30.307Z,11.73
2017-12-21T18:45:57.774Z,12.70
2017-12-21T18:48:25.226Z,12.50
2017-12-21T18:50:52.706Z,12.90
2017-12-21T18:53:23.583Z,13.30
2017-12-21T18:55:51.058Z,13.30
2017-12-21T18:58:18.531Z,14.20
2017-12-21T19:00:45.998Z,13.50
2017-12-21T19:03:13.458Z,13.33
2017-12-21T19:05:41.007Z,13.70
2017-12-21T19:08:08.483Z,14.07
2017-12-21T19:10:35.986Z,14.03
2017-12-21T19:13:03.438Z,13.57
2017-12-21T19:15:30.906Z,14.20
2017-12-21T19:17:58.364Z,14.50
2017-12-21T19:20:25.828Z,14.43
2017-12-21T19:22:53.281Z,13.00
2017-12-21T19:25:20.754Z,13.87
2017-12-21T19:27:48.230Z,13.47
2017-12-21T19:30:15.701Z,13.90
2017-12-21T19:32:43.163Z,13.50
2017-12-21T19:35:10.614Z,15.43
2017-12-21T19:37:38.099Z,14.97
2017-12-21T19:40:06.333Z,14.10
2017-12-21T19:42:33.790Z,13.40
2017-12-21T19:45:01.247Z,13.97
2017-12-21T19:47:28.723Z,9.67
2017-12-21T19:49:56.194Z,12.20
2017-12-21T19:52:23.682Z,12.00
2017-12-21T19:54:51.913Z,14.40
2017-12-21T19:57:19.382Z,13.37
2017-12-21T19:59:46.835Z,14.17
2017-12-21T20:02:14.339Z,13.73
2017-12-21T20:04:41.791Z,14.63
2017-12-21T20:07:09.262Z,15.20
2017-12-21T20:09:36.736Z,13.90
2017-12-21T20:12:04.190Z,13.63
2017-12-21T20:14:31.641Z,14.40
2017-12-21T20:16:59.098Z,13.90
2017-12-21T20:19:27.549Z,13.40
2017-12-21T20:21:55.015Z,14.57
2017-12-21T20:24:22.489Z,15.77
2017-12-21T20:26:49.955Z,14.67
2017-12-21T20:29:17.687Z,14.47
2017-12-21T20:31:45.175Z,13.47
2017-12-21T20:34:14.618Z,13.27
2017-12-21T20:36:42.851Z,12.60
2017-12-21T20:39:10.330Z,13.37
2017-12-21T20:41:37.790Z,13.40
2017-12-21T20:44:05.254Z,14.00
2017-12-21T20:46:32.723Z,14.60
2017-12-21T20:49:00.419Z,14.43
2017-12-21T20:51:27.882Z,15.47
2017-12-21T20:53:55.358Z,15.73
2017-12-21T20:56:24.758Z,14.90
2017-12-21T20:58:52.241Z,15.70
2017-12-21T21:01:19.710Z,15.23
2017-12-21T21:03:47.178Z,16.63
2017-12-21T21:06:16.142Z,16.47
2017-12-21T21:08:43.622Z,16.17
2017-12-21T21:11:11.099Z,17.47
2017-12-21T21:13:38.574Z,15.77
2017-12-21T21:16:06.034Z,16.27
2017-12-21T21:18:34.259Z,16.70
2017-12-21T21:21:01.718Z,15.70
2017-12-21T21:23:29.197Z,17.07
2017-12-21T21:25:56.650Z,16.23
2017-12-21T21:28:24.094Z,16.70
2017-12-21T21:30:51.571Z,17.33
2017-12-21T21:33:19.026Z,16.80
2017-12-21T21:35:46.516Z,16.50
2017-12-21T21:38:13.987Z,17.87
2017-12-21T21:40:41.456Z,17.97
2017-12-21T21:43:08.975Z,17.17
2017-12-21T21:45:37.209Z,17.17
2017-12-21T21:48:05.432Z,17.90
2017-12-21T21:50:32.893Z,15.67
2017-12-21T21:53:00.380Z,16.77
2017-12-21T21:55:27.847Z,17.70
2017-12-21T21:57:55.313Z,16.50
2017-12-21T22:00:22.886Z,17.17
2017-12-21T22:02:51.841Z,18.17
2017-12-21T22:05:19.313Z,18.67
2017-12-21T22:07:46.787Z,18.47
2017-12-21T22:10:14.257Z,17.70
2017-12-21T22:12:42.472Z,17.10
2017-12-21T22:15:09.950Z,17.70
2017-12-21T22:17:37.414Z,17.10
2017-12-21T22:20:04.879Z,18.90
2017-12-21T22:22:32.330Z,18.17
2017-12-21T22:24:59.809Z,18.07
2017-12-21T22:27:27.263Z,18.50
2017-12-21T22:29:54.713Z,19.20
2017-12-21T22:32:22.946Z,18.60
2017-12-21T22:34:50.400Z,18.17
2017-12-21T22:37:17.873Z,17.40
2017-12-21T22:39:45.320Z,16.70
2017-12-21T22:42:13.566Z,17.83
2017-12-21T22:44:42.064Z,16.80
2017-12-21T22:47:10.310Z,17.50
2017-12-21T22:49:38.513Z,16.57
2017-12-21T22:52:05.970Z,16.00
2017-12-21T22:54:33.426Z,15.67
2017-12-21T22:57:01.673Z,14.90
2017-12-21T22:59:29.130Z,14.50
2017-12-21T23:01:57.668Z,13.63
2017-12-21T23:04:25.125Z,14.57
2017-12-21T23:06:52.598Z,13.50
2017-12-21T23:09:20.046Z,14.50
2017-12-21T23:11:47.525Z,14.63
2017-12-21T23:14:14.995Z,16.30
2017-12-21T23:16:42.442Z,16.93
2017-12-21T23:19:09.907Z,17.40
2017-12-21T23:21:37.354Z,17.20
2017-12-21T23:24:04.812Z,15.50
2017-12-21T23:26:32.270Z,14.73
2017-12-21T23:28:59.726Z,14.97
2017-12-21T23:31:27.230Z,15.10
2017-12-21T23:33:55.457Z,15.80
2017-12-21T23:36:22.915Z,16.80
2017-12-21T23:38:50.389Z,15.50
2017-12-21T23:41:18.602Z,15.23
2017-12-21T23:43:46.066Z,16.60
2017-12-21T23:46:13.554Z,17.07
2017-12-21T23:48:41.035Z,15.57
2017-12-21T23:51:09.249Z,16.60
2017-12-21T23:53:36.715Z,15.13
2017-12-21T23:56:04.185Z,15.63
2017-12-21T23:58:31.658Z,14.77
